sensor_id;sensor_type;location;lat;lon;timestamp;P1;durP1;ratioP1;P2;durP2;ratioP2
35632;SDS011;21754;48.216;-1.628;2022-07-23T00:00:54;3.55;;;1.50;;
35632;SDS011;21754;48.216;-1.628;2022-07-23T00:03:20;5.22;;;1.38;;
35632;SDS011;21754;48.216;-1.628;2022-07-23T00:05:46;7.75;;;1.98;;
35632;SDS011;21754;48.216;-1.628;2022-07-23T00:08:12;6.32;;;1.83;;
35632;SDS011;21754;48.216;-1.628;2022-07-23T00:10:38;3.42;;;1.42;;
35632;SDS011;21754;48.216;-1.628;2022-07-23T00:13:04;5.63;;;2.55;;
35632;SDS011;21754;48.216;-1.628;2022-07-23T00:15:30;3.15;;;1.83;;
35632;SDS011;21754;48.216;-1.628;2022-07-23T00:17:56;9.45;;;1.70;;
35632;SDS011;21754;48.216;-1.628;2022-07-23T00:20:22;2.05;;;1.88;;
35632;SDS011;21754;48.216;-1.628;2022-07-23T00:22:52;7.80;;;2.20;;
35632;SDS011;21754;48.216;-1.628;2022-07-23T00:25:19;3.00;;;2.03;;
35632;SDS011;21754;48.216;-1.628;2022-07-23T00:27:45;8.73;;;1.45;;
35632;SDS011;21754;48.216;-1.628;2022-07-23T00:30:12;3.25;;;2.33;;
35632;SDS011;21754;48.216;-1.628;2022-07-23T00:32:54;3.50;;;1.85;;
35632;SDS011;21754;48.216;-1.628;2022-07-23T00:35:21;7.07;;;1.85;;
35632;SDS011;21754;48.216;-1.628;2022-07-23T00:37:48;5.63;;;1.98;;
35632;SDS011;21754;48.216;-1.628;2022-07-23T00:40:14;4.70;;;2.20;;
35632;SDS011;21754;48.216;-1.628;2022-07-23T00:42:40;5.57;;;1.63;;
35632;SDS011;21754;48.216;-1.628;2022-07-23T00:45:06;8.25;;;1.75;;
35632;SDS011;21754;48.216;-1.628;2022-07-23T00:47:33;3.90;;;1.55;;
35632;SDS011;21754;48.216;-1.628;2022-07-23T00:49:59;2.58;;;1.75;;
35632;SDS011;21754;48.216;-1.628;2022-07-23T00:52:25;3.08;;;1.60;;
35632;SDS011;21754;48.216;-1.628;2022-07-23T00:54:51;2.85;;;1.60;;
35632;SDS011;21754;48.216;-1.628;2022-07-23T00:57:18;2.80;;;1.55;;
35632;SDS011;21754;48.216;-1.628;2022-07-23T00:59:44;4.03;;;1.42;;
35632;SDS011;21754;48.216;-1.628;2022-07-23T01:02:10;5.47;;;1.92;;
35632;SDS011;21754;48.216;-1.628;2022-07-23T01:04:36;2.80;;;2.15;;
35632;SDS011;21754;48.216;-1.628;2022-07-23T01:07:02;3.15;;;1.65;;
35632;SDS011;21754;48.216;-1.628;2022-07-23T01:09:30;6.32;;;2.33;;
35632;SDS011;21754;48.216;-1.628;2022-07-23T01:11:56;3.20;;;2.20;;
35632;SDS011;21754;48.216;-1.628;2022-07-23T01:14:22;12.32;;;1.67;;
35632;SDS011;21754;48.216;-1.628;2022-07-23T01:16:49;5.97;;;1.70;;
35632;SDS011;21754;48.216;-1.628;2022-07-23T01:19:16;4.25;;;1.75;;
35632;SDS011;21754;48.216;-1.628;2022-07-23T01:21:44;4.47;;;1.63;;
35632;SDS011;21754;48.216;-1.628;2022-07-23T01:24:11;8.13;;;2.13;;
35632;SDS011;21754;48.216;-1.628;2022-07-23T01:26:37;4.68;;;1.58;;
35632;SDS011;21754;48.216;-1.628;2022-07-23T01:29:04;8.95;;;2.15;;
35632;SDS011;21754;48.216;-1.628;2022-07-23T01:31:30;2.20;;;1.80;;
35632;SDS011;21754;48.216;-1.628;2022-07-23T01:33:56;5.78;;;2.03;;
35632;SDS011;21754;48.216;-1.628;2022-07-23T01:36:22;2.50;;;2.22;;
35632;SDS011;21754;48.216;-1.628;2022-07-23T01:38:49;9.10;;;1.42;;
35632;SDS011;21754;48.216;-1.628;2022-07-23T01:41:15;4.40;;;1.98;;
35632;SDS011;21754;48.216;-1.628;2022-07-23T01:43:41;5.03;;;1.88;;
35632;SDS011;21754;48.216;-1.628;2022-07-23T01:46:07;6.72;;;2.55;;
35632;SDS011;21754;48.216;-1.628;2022-07-23T01:48:33;1.95;;;1.40;;
35632;SDS011;21754;48.216;-1.628;2022-07-23T01:51:00;8.88;;;1.50;;
35632;SDS011;21754;48.216;-1.628;2022-07-23T01:53:25;4.28;;;1.80;;
35632;SDS011;21754;48.216;-1.628;2022-07-23T01:55:51;6.15;;;2.08;;
35632;SDS011;21754;48.216;-1.628;2022-07-23T01:58:17;6.63;;;1.88;;
35632;SDS011;21754;48.216;-1.628;2022-07-23T02:00:43;6.32;;;1.58;;
35632;SDS011;21754;48.216;-1.628;2022-07-23T02:03:09;1.92;;;1.25;;
35632;SDS011;21754;48.216;-1.628;2022-07-23T02:05:35;4.57;;;2.03;;
35632;SDS011;21754;48.216;-1.628;2022-07-23T02:08:01;1.98;;;1.77;;
35632;SDS011;21754;48.216;-1.628;2022-07-23T02:10:28;9.18;;;2.00;;
35632;SDS011;21754;48.216;-1.628;2022-07-23T02:12:54;2.90;;;1.65;;
35632;SDS011;21754;48.216;-1.628;2022-07-23T02:15:20;2.63;;;1.35;;
35632;SDS011;21754;48.216;-1.628;2022-07-23T02:17:46;4.40;;;1.75;;
35632;SDS011;21754;48.216;-1.628;2022-07-23T02:20:12;4.22;;;1.95;;
35632;SDS011;21754;48.216;-1.628;2022-07-23T02:22:39;2.72;;;2.13;;
35632;SDS011;21754;48.216;-1.628;2022-07-23T02:25:05;5.75;;;2.00;;
35632;SDS011;21754;48.216;-1.628;2022-07-23T02:27:32;3.30;;;1.77;;
35632;SDS011;21754;48.216;-1.628;2022-07-23T02:29:58;3.97;;;1.42;;
35632;SDS011;21754;48.216;-1.628;2022-07-23T02:32:24;7.30;;;2.42;;
35632;SDS011;21754;48.216;-1.628;2022-07-23T02:34:50;5.25;;;1.60;;
35632;SDS011;21754;48.216;-1.628;2022-07-23T02:37:17;3.42;;;2.22;;
35632;SDS011;21754;48.216;-1.628;2022-07-23T02:39:43;2.20;;;1.73;;
35632;SDS011;21754;48.216;-1.628;2022-07-23T02:42:09;3.67;;;1.60;;
35632;SDS011;21754;48.216;-1.628;2022-07-23T02:44:35;4.47;;;2.92;;
35632;SDS011;21754;48.216;-1.628;2022-07-23T02:47:01;3.22;;;1.35;;
35632;SDS011;21754;48.216;-1.628;2022-07-23T02:49:27;2.85;;;1.65;;
35632;SDS011;21754;48.216;-1.628;2022-07-23T02:51:53;3.45;;;1.40;;
35632;SDS011;21754;48.216;-1.628;2022-07-23T02:54:19;4.13;;;2.65;;
35632;SDS011;21754;48.216;-1.628;2022-07-23T02:56:45;3.75;;;1.55;;
35632;SDS011;21754;48.216;-1.628;2022-07-23T02:59:11;2.40;;;2.20;;
35632;SDS011;21754;48.216;-1.628;2022-07-23T03:01:37;5.25;;;2.25;;
35632;SDS011;21754;48.216;-1.628;2022-07-23T03:04:04;5.88;;;1.77;;
35632;SDS011;21754;48.216;-1.628;2022-07-23T03:06:30;3.13;;;2.20;;
35632;SDS011;21754;48.216;-1.628;2022-07-23T03:08:56;2.45;;;1.73;;
35632;SDS011;21754;48.216;-1.628;2022-07-23T03:11:22;11.23;;;2.45;;
35632;SDS011;21754;48.216;-1.628;2022-07-23T03:13:48;8.40;;;2.15;;
35632;SDS011;21754;48.216;-1.628;2022-07-23T03:16:14;2.55;;;1.98;;
35632;SDS011;21754;48.216;-1.628;2022-07-23T03:18:40;3.83;;;1.92;;
35632;SDS011;21754;48.216;-1.628;2022-07-23T03:21:06;6.25;;;2.28;;
35632;SDS011;21754;48.216;-1.628;2022-07-23T03:23:32;8.00;;;2.92;;
35632;SDS011;21754;48.216;-1.628;2022-07-23T03:25:58;2.28;;;1.52;;
35632;SDS011;21754;48.216;-1.628;2022-07-23T03:28:23;4.57;;;1.88;;
35632;SDS011;21754;48.216;-1.628;2022-07-23T03:30:49;4.13;;;2.17;;
35632;SDS011;21754;48.216;-1.628;2022-07-23T03:33:16;5.18;;;1.90;;
35632;SDS011;21754;48.216;-1.628;2022-07-23T03:35:43;3.15;;;1.55;;
35632;SDS011;21754;48.216;-1.628;2022-07-23T03:38:09;2.10;;;1.53;;
35632;SDS011;21754;48.216;-1.628;2022-07-23T03:40:35;4.03;;;3.25;;
35632;SDS011;21754;48.216;-1.628;2022-07-23T03:43:01;12.10;;;2.85;;
35632;SDS011;21754;48.216;-1.628;2022-07-23T03:45:26;4.72;;;1.90;;
35632;SDS011;21754;48.216;-1.628;2022-07-23T03:47:52;2.38;;;2.17;;
35632;SDS011;21754;48.216;-1.628;2022-07-23T03:50:18;2.42;;;2.05;;
35632;SDS011;21754;48.216;-1.628;2022-07-23T03:52:44;1.60;;;1.50;;
35632;SDS011;21754;48.216;-1.628;2022-07-23T03:55:10;5.93;;;2.40;;
35632;SDS011;21754;48.216;-1.628;2022-07-23T03:57:35;7.53;;;2.35;;
35632;SDS011;21754;48.216;-1.628;2022-07-23T04:00:02;2.97;;;2.10;;
35632;SDS011;21754;48.216;-1.628;2022-07-23T04:02:30;3.20;;;2.03;;
35632;SDS011;21754;48.216;-1.628;2022-07-23T04:04:56;1.77;;;1.67;;
35632;SDS011;21754;48.216;-1.628;2022-07-23T04:07:21;2.38;;;2.15;;
35632;SDS011;21754;48.216;-1.628;2022-07-23T04:09:47;2.40;;;2.17;;
35632;SDS011;21754;48.216;-1.628;2022-07-23T04:12:13;4.07;;;1.80;;
35632;SDS011;21754;48.216;-1.628;2022-07-23T04:14:39;8.57;;;2.13;;
35632;SDS011;21754;48.216;-1.628;2022-07-23T04:17:04;2.30;;;2.10;;
35632;SDS011;21754;48.216;-1.628;2022-07-23T04:19:30;2.40;;;2.00;;
35632;SDS011;21754;48.216;-1.628;2022-07-23T04:21:56;3.58;;;2.33;;
35632;SDS011;21754;48.216;-1.628;2022-07-23T04:24:22;5.35;;;2.13;;
35632;SDS011;21754;48.216;-1.628;2022-07-23T04:26:48;12.73;;;2.17;;
35632;SDS011;21754;48.216;-1.628;2022-07-23T04:29:13;7.03;;;1.98;;
35632;SDS011;21754;48.216;-1.628;2022-07-23T04:31:39;4.22;;;2.28;;
35632;SDS011;21754;48.216;-1.628;2022-07-23T04:34:04;2.75;;;2.03;;
35632;SDS011;21754;48.216;-1.628;2022-07-23T04:36:30;3.00;;;1.98;;
35632;SDS011;21754;48.216;-1.628;2022-07-23T04:38:56;8.60;;;2.13;;
35632;SDS011;21754;48.216;-1.628;2022-07-23T04:41:21;8.30;;;2.72;;
35632;SDS011;21754;48.216;-1.628;2022-07-23T04:43:47;2.60;;;2.40;;
35632;SDS011;21754;48.216;-1.628;2022-07-23T04:46:13;2.85;;;1.77;;
35632;SDS011;21754;48.216;-1.628;2022-07-23T04:48:38;3.97;;;2.35;;
35632;SDS011;21754;48.216;-1.628;2022-07-23T04:51:04;2.63;;;1.90;;
35632;SDS011;21754;48.216;-1.628;2022-07-23T04:53:30;6.30;;;2.03;;
35632;SDS011;21754;48.216;-1.628;2022-07-23T04:55:56;2.15;;;1.95;;
35632;SDS011;21754;48.216;-1.628;2022-07-23T04:58:22;5.63;;;2.17;;
35632;SDS011;21754;48.216;-1.628;2022-07-23T05:00:48;1.98;;;1.88;;
35632;SDS011;21754;48.216;-1.628;2022-07-23T05:03:14;7.32;;;2.30;;
35632;SDS011;21754;48.216;-1.628;2022-07-23T05:05:40;3.00;;;1.65;;
35632;SDS011;21754;48.216;-1.628;2022-07-23T05:08:05;7.68;;;2.97;;
35632;SDS011;21754;48.216;-1.628;2022-07-23T05:10:31;6.90;;;2.10;;
35632;SDS011;21754;48.216;-1.628;2022-07-23T05:12:57;3.95;;;1.88;;
35632;SDS011;21754;48.216;-1.628;2022-07-23T05:15:22;1.98;;;1.88;;
35632;SDS011;21754;48.216;-1.628;2022-07-23T05:17:48;5.38;;;2.13;;
35632;SDS011;21754;48.216;-1.628;2022-07-23T05:20:14;3.78;;;2.70;;
35632;SDS011;21754;48.216;-1.628;2022-07-23T05:22:39;4.78;;;2.55;;
35632;SDS011;21754;48.216;-1.628;2022-07-23T05:25:06;6.80;;;2.72;;
35632;SDS011;21754;48.216;-1.628;2022-07-23T05:27:32;3.58;;;3.38;;
35632;SDS011;21754;48.216;-1.628;2022-07-23T05:29:57;4.20;;;2.95;;
35632;SDS011;21754;48.216;-1.628;2022-07-23T05:32:23;3.47;;;2.50;;
35632;SDS011;21754;48.216;-1.628;2022-07-23T05:34:50;4.70;;;2.55;;
35632;SDS011;21754;48.216;-1.628;2022-07-23T05:37:16;4.15;;;2.50;;
35632;SDS011;21754;48.216;-1.628;2022-07-23T05:39:42;8.38;;;2.72;;
35632;SDS011;21754;48.216;-1.628;2022-07-23T05:42:08;10.02;;;2.50;;
35632;SDS011;21754;48.216;-1.628;2022-07-23T05:44:34;3.50;;;2.97;;
35632;SDS011;21754;48.216;-1.628;2022-07-23T05:47:00;4.50;;;2.90;;
35632;SDS011;21754;48.216;-1.628;2022-07-23T05:49:26;3.92;;;2.65;;
35632;SDS011;21754;48.216;-1.628;2022-07-23T05:51:52;9.32;;;3.42;;
35632;SDS011;21754;48.216;-1.628;2022-07-23T05:54:18;5.95;;;2.72;;
35632;SDS011;21754;48.216;-1.628;2022-07-23T05:56:44;2.58;;;2.38;;
35632;SDS011;21754;48.216;-1.628;2022-07-23T05:59:10;5.40;;;2.75;;
35632;SDS011;21754;48.216;-1.628;2022-07-23T06:01:38;3.77;;;2.73;;
35632;SDS011;21754;48.216;-1.628;2022-07-23T06:04:04;4.13;;;2.28;;
35632;SDS011;21754;48.216;-1.628;2022-07-23T06:06:30;9.48;;;3.25;;
35632;SDS011;21754;48.216;-1.628;2022-07-23T06:08:56;4.72;;;3.30;;
35632;SDS011;21754;48.216;-1.628;2022-07-23T06:11:22;6.85;;;3.38;;
35632;SDS011;21754;48.216;-1.628;2022-07-23T06:13:48;4.82;;;3.78;;
35632;SDS011;21754;48.216;-1.628;2022-07-23T06:16:14;8.55;;;3.33;;
35632;SDS011;21754;48.216;-1.628;2022-07-23T06:18:40;3.40;;;2.80;;
35632;SDS011;21754;48.216;-1.628;2022-07-23T06:21:06;6.72;;;3.38;;
35632;SDS011;21754;48.216;-1.628;2022-07-23T06:23:32;5.32;;;2.65;;
35632;SDS011;21754;48.216;-1.628;2022-07-23T06:25:58;4.47;;;3.08;;
35632;SDS011;21754;48.216;-1.628;2022-07-23T06:28:24;5.57;;;3.22;;
35632;SDS011;21754;48.216;-1.628;2022-07-23T06:30:50;2.83;;;2.38;;
35632;SDS011;21754;48.216;-1.628;2022-07-23T06:33:16;6.13;;;2.78;;
35632;SDS011;21754;48.216;-1.628;2022-07-23T06:35:42;3.30;;;2.70;;
35632;SDS011;21754;48.216;-1.628;2022-07-23T06:38:08;10.15;;;2.85;;
35632;SDS011;21754;48.216;-1.628;2022-07-23T06:40:34;4.43;;;2.80;;
35632;SDS011;21754;48.216;-1.628;2022-07-23T06:43:00;5.32;;;2.75;;
35632;SDS011;21754;48.216;-1.628;2022-07-23T06:45:26;3.00;;;2.80;;
35632;SDS011;21754;48.216;-1.628;2022-07-23T06:47:52;19.08;;;3.08;;
35632;SDS011;21754;48.216;-1.628;2022-07-23T06:50:18;4.68;;;2.58;;
35632;SDS011;21754;48.216;-1.628;2022-07-23T06:52:44;9.30;;;3.42;;
35632;SDS011;21754;48.216;-1.628;2022-07-23T06:55:10;9.48;;;3.42;;
35632;SDS011;21754;48.216;-1.628;2022-07-23T06:57:37;6.03;;;3.17;;
35632;SDS011;21754;48.216;-1.628;2022-07-23T07:00:03;4.80;;;3.38;;
35632;SDS011;21754;48.216;-1.628;2022-07-23T07:02:30;8.32;;;3.15;;
35632;SDS011;21754;48.216;-1.628;2022-07-23T07:04:56;12.50;;;3.10;;
35632;SDS011;21754;48.216;-1.628;2022-07-23T07:07:22;3.90;;;2.53;;
35632;SDS011;21754;48.216;-1.628;2022-07-23T07:09:49;10.45;;;4.68;;
35632;SDS011;21754;48.216;-1.628;2022-07-23T07:12:15;10.80;;;3.65;;
35632;SDS011;21754;48.216;-1.628;2022-07-23T07:14:41;8.73;;;3.92;;
35632;SDS011;21754;48.216;-1.628;2022-07-23T07:17:06;12.85;;;2.85;;
35632;SDS011;21754;48.216;-1.628;2022-07-23T07:19:32;12.30;;;2.88;;
35632;SDS011;21754;48.216;-1.628;2022-07-23T07:21:58;7.88;;;2.53;;
35632;SDS011;21754;48.216;-1.628;2022-07-23T07:24:23;4.03;;;1.80;;
35632;SDS011;21754;48.216;-1.628;2022-07-23T07:26:49;9.02;;;1.85;;
35632;SDS011;21754;48.216;-1.628;2022-07-23T07:29:15;4.10;;;2.30;;
35632;SDS011;21754;48.216;-1.628;2022-07-23T07:31:41;3.10;;;1.88;;
35632;SDS011;21754;48.216;-1.628;2022-07-23T07:34:06;8.98;;;1.30;;
35632;SDS011;21754;48.216;-1.628;2022-07-23T07:36:32;4.97;;;1.40;;
35632;SDS011;21754;48.216;-1.628;2022-07-23T07:38:58;7.30;;;2.05;;
35632;SDS011;21754;48.216;-1.628;2022-07-23T07:41:23;3.55;;;1.45;;
35632;SDS011;21754;48.216;-1.628;2022-07-23T07:43:51;5.57;;;2.28;;
35632;SDS011;21754;48.216;-1.628;2022-07-23T07:46:17;3.78;;;1.85;;
35632;SDS011;21754;48.216;-1.628;2022-07-23T07:48:43;10.98;;;3.72;;
35632;SDS011;21754;48.216;-1.628;2022-07-23T07:51:08;2.78;;;1.75;;
35632;SDS011;21754;48.216;-1.628;2022-07-23T07:53:34;6.93;;;2.92;;
35632;SDS011;21754;48.216;-1.628;2022-07-23T07:56:00;10.55;;;2.22;;
35632;SDS011;21754;48.216;-1.628;2022-07-23T07:58:26;9.73;;;2.45;;
35632;SDS011;21754;48.216;-1.628;2022-07-23T08:00:51;3.90;;;2.20;;
35632;SDS011;21754;48.216;-1.628;2022-07-23T08:03:17;1.80;;;1.70;;
35632;SDS011;21754;48.216;-1.628;2022-07-23T08:05:43;9.52;;;1.77;;
35632;SDS011;21754;48.216;-1.628;2022-07-23T08:08:08;3.83;;;1.90;;
35632;SDS011;21754;48.216;-1.628;2022-07-23T08:10:39;7.97;;;1.95;;
35632;SDS011;21754;48.216;-1.628;2022-07-23T08:13:06;3.95;;;2.08;;
35632;SDS011;21754;48.216;-1.628;2022-07-23T08:15:32;3.20;;;1.50;;
35632;SDS011;21754;48.216;-1.628;2022-07-23T08:17:58;3.30;;;1.95;;
35632;SDS011;21754;48.216;-1.628;2022-07-23T08:20:24;4.53;;;2.25;;
35632;SDS011;21754;48.216;-1.628;2022-07-23T08:22:57;4.05;;;2.17;;
35632;SDS011;21754;48.216;-1.628;2022-07-23T08:25:32;10.85;;;1.63;;
35632;SDS011;21754;48.216;-1.628;2022-07-23T08:28:00;3.10;;;2.10;;
35632;SDS011;21754;48.216;-1.628;2022-07-23T08:30:28;6.97;;;2.85;;
35632;SDS011;21754;48.216;-1.628;2022-07-23T08:35:29;5.85;;;1.95;;
35632;SDS011;21754;48.216;-1.628;2022-07-23T08:38:00;3.72;;;2.50;;
35632;SDS011;21754;48.216;-1.628;2022-07-23T08:40:28;5.30;;;2.20;;
35632;SDS011;21754;48.216;-1.628;2022-07-23T08:42:55;8.65;;;2.47;;
35632;SDS011;21754;48.216;-1.628;2022-07-23T08:45:22;7.68;;;2.05;;
35632;SDS011;21754;48.216;-1.628;2022-07-23T08:47:52;8.18;;;2.25;;
35632;SDS011;21754;48.216;-1.628;2022-07-23T08:50:19;20.00;;;3.47;;
35632;SDS011;21754;48.216;-1.628;2022-07-23T08:52:45;7.13;;;3.28;;
35632;SDS011;21754;48.216;-1.628;2022-07-23T08:55:12;15.18;;;3.90;;
35632;SDS011;21754;48.216;-1.628;2022-07-23T08:57:38;7.35;;;2.30;;
35632;SDS011;21754;48.216;-1.628;2022-07-23T09:00:04;12.60;;;2.90;;
35632;SDS011;21754;48.216;-1.628;2022-07-23T09:02:37;3.42;;;2.55;;
35632;SDS011;21754;48.216;-1.628;2022-07-23T09:05:04;2.15;;;1.92;;
35632;SDS011;21754;48.216;-1.628;2022-07-23T09:07:31;6.05;;;2.20;;
35632;SDS011;21754;48.216;-1.628;2022-07-23T09:10:10;9.80;;;3.17;;
35632;SDS011;21754;48.216;-1.628;2022-07-23T09:12:39;9.30;;;3.05;;
35632;SDS011;21754;48.216;-1.628;2022-07-23T09:15:05;9.55;;;2.05;;
35632;SDS011;21754;48.216;-1.628;2022-07-23T09:17:39;5.47;;;2.03;;
35632;SDS011;21754;48.216;-1.628;2022-07-23T09:20:13;10.43;;;2.40;;
35632;SDS011;21754;48.216;-1.628;2022-07-23T09:22:47;7.63;;;1.92;;
35632;SDS011;21754;48.216;-1.628;2022-07-23T09:25:17;3.63;;;1.60;;
35632;SDS011;21754;48.216;-1.628;2022-07-23T09:30:17;2.17;;;1.60;;
35632;SDS011;21754;48.216;-1.628;2022-07-23T09:32:43;8.18;;;2.08;;
35632;SDS011;21754;48.216;-1.628;2022-07-23T09:35:09;1.95;;;1.63;;
35632;SDS011;21754;48.216;-1.628;2022-07-23T09:37:35;4.35;;;2.03;;
35632;SDS011;21754;48.216;-1.628;2022-07-23T09:40:05;5.32;;;1.85;;
35632;SDS011;21754;48.216;-1.628;2022-07-23T09:42:32;4.25;;;1.88;;
35632;SDS011;21754;48.216;-1.628;2022-07-23T09:44:58;1.92;;;1.30;;
35632;SDS011;21754;48.216;-1.628;2022-07-23T09:47:25;4.28;;;1.42;;
35632;SDS011;21754;48.216;-1.628;2022-07-23T09:50:02;3.15;;;2.47;;
35632;SDS011;21754;48.216;-1.628;2022-07-23T09:52:32;8.50;;;2.20;;
35632;SDS011;21754;48.216;-1.628;2022-07-23T09:57:25;5.60;;;1.40;;
35632;SDS011;21754;48.216;-1.628;2022-07-23T09:59:51;2.20;;;1.13;;
35632;SDS011;21754;48.216;-1.628;2022-07-23T10:02:18;5.22;;;1.33;;
35632;SDS011;21754;48.216;-1.628;2022-07-23T10:04:44;8.00;;;1.95;;
35632;SDS011;21754;48.216;-1.628;2022-07-23T10:07:10;1.30;;;1.20;;
35632;SDS011;21754;48.216;-1.628;2022-07-23T10:09:38;3.97;;;1.80;;
35632;SDS011;21754;48.216;-1.628;2022-07-23T10:12:05;1.17;;;1.02;;
35632;SDS011;21754;48.216;-1.628;2022-07-23T10:14:50;3.95;;;1.77;;
35632;SDS011;21754;48.216;-1.628;2022-07-23T10:17:17;7.10;;;1.30;;
35632;SDS011;21754;48.216;-1.628;2022-07-23T10:19:43;3.83;;;1.27;;
35632;SDS011;21754;48.216;-1.628;2022-07-23T10:22:11;1.70;;;1.48;;
35632;SDS011;21754;48.216;-1.628;2022-07-23T10:30:09;2.97;;;2.17;;
35632;SDS011;21754;48.216;-1.628;2022-07-23T10:35:12;1.75;;;1.40;;
35632;SDS011;21754;48.216;-1.628;2022-07-23T10:37:55;1.83;;;1.20;;
35632;SDS011;21754;48.216;-1.628;2022-07-23T10:40:35;5.28;;;1.20;;
35632;SDS011;21754;48.216;-1.628;2022-07-23T10:43:01;0.73;;;0.73;;
35632;SDS011;21754;48.216;-1.628;2022-07-23T10:45:37;2.28;;;1.20;;
35632;SDS011;21754;48.216;-1.628;2022-07-23T10:48:23;9.40;;;3.95;;
35632;SDS011;21754;48.216;-1.628;2022-07-23T10:51:07;5.18;;;1.55;;
35632;SDS011;21754;48.216;-1.628;2022-07-23T10:56:17;3.47;;;1.17;;
35632;SDS011;21754;48.216;-1.628;2022-07-23T10:59:04;1.33;;;1.00;;
35632;SDS011;21754;48.216;-1.628;2022-07-23T11:01:37;6.35;;;1.30;;
35632;SDS011;21754;48.216;-1.628;2022-07-23T11:04:04;3.45;;;1.55;;
35632;SDS011;21754;48.216;-1.628;2022-07-23T11:09:30;1.70;;;0.93;;
35632;SDS011;21754;48.216;-1.628;2022-07-23T11:17:26;2.28;;;0.70;;
35632;SDS011;21754;48.216;-1.628;2022-07-23T11:25:02;4.78;;;0.88;;
35632;SDS011;21754;48.216;-1.628;2022-07-23T11:30:07;1.75;;;0.90;;
35632;SDS011;21754;48.216;-1.628;2022-07-23T11:32:34;2.00;;;1.80;;
35632;SDS011;21754;48.216;-1.628;2022-07-23T11:35:03;3.65;;;1.80;;
35632;SDS011;21754;48.216;-1.628;2022-07-23T11:37:39;1.23;;;0.90;;
35632;SDS011;21754;48.216;-1.628;2022-07-23T11:40:10;2.28;;;1.40;;
35632;SDS011;21754;48.216;-1.628;2022-07-23T11:42:39;1.05;;;0.95;;
35632;SDS011;21754;48.216;-1.628;2022-07-23T11:45:16;0.93;;;0.90;;
35632;SDS011;21754;48.216;-1.628;2022-07-23T11:47:41;1.38;;;0.88;;
35632;SDS011;21754;48.216;-1.628;2022-07-23T11:50:07;6.93;;;1.30;;
35632;SDS011;21754;48.216;-1.628;2022-07-23T11:52:33;2.58;;;1.38;;
35632;SDS011;21754;48.216;-1.628;2022-07-23T11:55:00;0.70;;;0.70;;
35632;SDS011;21754;48.216;-1.628;2022-07-23T11:57:35;1.58;;;0.77;;
35632;SDS011;21754;48.216;-1.628;2022-07-23T12:00:06;1.05;;;0.80;;
35632;SDS011;21754;48.216;-1.628;2022-07-23T12:02:34;1.95;;;1.10;;
35632;SDS011;21754;48.216;-1.628;2022-07-23T12:04:59;1.15;;;0.70;;
35632;SDS011;21754;48.216;-1.628;2022-07-23T12:07:32;2.97;;;1.05;;
35632;SDS011;21754;48.216;-1.628;2022-07-23T12:10:20;1.33;;;1.10;;
35632;SDS011;21754;48.216;-1.628;2022-07-23T12:12:57;1.10;;;0.80;;
35632;SDS011;21754;48.216;-1.628;2022-07-23T12:15:32;3.03;;;1.35;;
35632;SDS011;21754;48.216;-1.628;2022-07-23T12:18:08;1.48;;;0.73;;
35632;SDS011;21754;48.216;-1.628;2022-07-23T12:20:39;1.55;;;0.73;;
35632;SDS011;21754;48.216;-1.628;2022-07-23T12:23:08;1.35;;;1.02;;
35632;SDS011;21754;48.216;-1.628;2022-07-23T12:25:36;2.30;;;0.82;;
35632;SDS011;21754;48.216;-1.628;2022-07-23T12:30:40;1.15;;;0.65;;
35632;SDS011;21754;48.216;-1.628;2022-07-23T12:33:30;1.15;;;0.82;;
35632;SDS011;21754;48.216;-1.628;2022-07-23T12:35:59;1.92;;;1.10;;
35632;SDS011;21754;48.216;-1.628;2022-07-23T12:38:27;1.52;;;1.02;;
35632;SDS011;21754;48.216;-1.628;2022-07-23T12:41:00;3.47;;;0.88;;
35632;SDS011;21754;48.216;-1.628;2022-07-23T12:43:27;1.15;;;0.80;;
35632;SDS011;21754;48.216;-1.628;2022-07-23T12:46:07;7.22;;;0.77;;
35632;SDS011;21754;48.216;-1.628;2022-07-23T12:51:16;0.77;;;0.60;;
35632;SDS011;21754;48.216;-1.628;2022-07-23T12:53:52;1.08;;;1.02;;
35632;SDS011;21754;48.216;-1.628;2022-07-23T12:56:20;0.60;;;0.60;;
35632;SDS011;21754;48.216;-1.628;2022-07-23T12:58:52;0.93;;;0.80;;
35632;SDS011;21754;48.216;-1.628;2022-07-23T13:06:34;1.23;;;0.73;;
35632;SDS011;21754;48.216;-1.628;2022-07-23T13:09:02;1.45;;;0.88;;
35632;SDS011;21754;48.216;-1.628;2022-07-23T13:11:29;0.60;;;0.60;;
35632;SDS011;21754;48.216;-1.628;2022-07-23T13:13:55;2.72;;;0.50;;
35632;SDS011;21754;48.216;-1.628;2022-07-23T13:16:21;5.00;;;1.20;;
35632;SDS011;21754;48.216;-1.628;2022-07-23T13:18:47;0.80;;;0.65;;
35632;SDS011;21754;48.216;-1.628;2022-07-23T13:21:13;2.58;;;1.10;;
35632;SDS011;21754;48.216;-1.628;2022-07-23T13:23:38;3.40;;;1.00;;
35632;SDS011;21754;48.216;-1.628;2022-07-23T13:26:04;2.85;;;0.93;;
35632;SDS011;21754;48.216;-1.628;2022-07-23T13:28:30;0.75;;;0.75;;
35632;SDS011;21754;48.216;-1.628;2022-07-23T13:30:56;1.13;;;0.93;;
35632;SDS011;21754;48.216;-1.628;2022-07-23T13:33:23;2.40;;;1.10;;
35632;SDS011;21754;48.216;-1.628;2022-07-23T13:35:50;2.03;;;0.90;;
35632;SDS011;21754;48.216;-1.628;2022-07-23T13:38:17;0.80;;;0.80;;
35632;SDS011;21754;48.216;-1.628;2022-07-23T13:40:44;0.65;;;0.65;;
35632;SDS011;21754;48.216;-1.628;2022-07-23T13:43:13;1.10;;;0.77;;
35632;SDS011;21754;48.216;-1.628;2022-07-23T13:48:07;1.25;;;0.80;;
35632;SDS011;21754;48.216;-1.628;2022-07-23T13:50:33;1.23;;;0.83;;
35632;SDS011;21754;48.216;-1.628;2022-07-23T13:53:01;1.87;;;0.90;;
35632;SDS011;21754;48.216;-1.628;2022-07-23T13:55:31;1.83;;;0.90;;
35632;SDS011;21754;48.216;-1.628;2022-07-23T13:57:57;1.42;;;0.80;;
35632;SDS011;21754;48.216;-1.628;2022-07-23T14:00:23;1.40;;;0.77;;
35632;SDS011;21754;48.216;-1.628;2022-07-23T14:02:49;1.55;;;1.48;;
35632;SDS011;21754;48.216;-1.628;2022-07-23T14:05:15;1.40;;;0.70;;
35632;SDS011;21754;48.216;-1.628;2022-07-23T14:07:41;4.55;;;1.02;;
35632;SDS011;21754;48.216;-1.628;2022-07-23T14:10:08;1.92;;;0.80;;
35632;SDS011;21754;48.216;-1.628;2022-07-23T14:12:34;0.70;;;0.70;;
35632;SDS011;21754;48.216;-1.628;2022-07-23T14:15:00;0.88;;;0.80;;
35632;SDS011;21754;48.216;-1.628;2022-07-23T14:17:26;0.80;;;0.80;;
35632;SDS011;21754;48.216;-1.628;2022-07-23T14:19:52;1.15;;;0.85;;
35632;SDS011;21754;48.216;-1.628;2022-07-23T14:22:17;0.70;;;0.70;;
35632;SDS011;21754;48.216;-1.628;2022-07-23T14:24:43;0.57;;;0.57;;
35632;SDS011;21754;48.216;-1.628;2022-07-23T14:27:09;1.15;;;0.75;;
35632;SDS011;21754;48.216;-1.628;2022-07-23T14:29:34;2.13;;;0.60;;
35632;SDS011;21754;48.216;-1.628;2022-07-23T14:32:01;1.02;;;0.73;;
35632;SDS011;21754;48.216;-1.628;2022-07-23T14:34:27;1.00;;;0.82;;
35632;SDS011;21754;48.216;-1.628;2022-07-23T14:36:53;2.28;;;0.52;;
35632;SDS011;21754;48.216;-1.628;2022-07-23T14:39:19;0.80;;;0.73;;
35632;SDS011;21754;48.216;-1.628;2022-07-23T14:41:45;2.08;;;0.82;;
35632;SDS011;21754;48.216;-1.628;2022-07-23T14:44:11;1.42;;;0.70;;
35632;SDS011;21754;48.216;-1.628;2022-07-23T14:46:37;1.65;;;1.40;;
35632;SDS011;21754;48.216;-1.628;2022-07-23T14:49:03;0.68;;;0.68;;
35632;SDS011;21754;48.216;-1.628;2022-07-23T14:51:29;0.90;;;0.90;;
35632;SDS011;21754;48.216;-1.628;2022-07-23T14:53:55;5.45;;;1.17;;
35632;SDS011;21754;48.216;-1.628;2022-07-23T14:56:21;2.35;;;0.90;;
35632;SDS011;21754;48.216;-1.628;2022-07-23T14:58:46;0.93;;;0.75;;
35632;SDS011;21754;48.216;-1.628;2022-07-23T15:01:12;5.90;;;0.77;;
35632;SDS011;21754;48.216;-1.628;2022-07-23T15:03:38;0.70;;;0.70;;
35632;SDS011;21754;48.216;-1.628;2022-07-23T15:06:04;2.17;;;0.95;;
35632;SDS011;21754;48.216;-1.628;2022-07-23T15:08:30;0.63;;;0.63;;
35632;SDS011;21754;48.216;-1.628;2022-07-23T15:10:55;1.58;;;0.80;;
35632;SDS011;21754;48.216;-1.628;2022-07-23T15:13:21;0.52;;;0.52;;
35632;SDS011;21754;48.216;-1.628;2022-07-23T15:15:47;1.25;;;0.90;;
35632;SDS011;21754;48.216;-1.628;2022-07-23T15:18:12;1.58;;;0.90;;
35632;SDS011;21754;48.216;-1.628;2022-07-23T15:20:38;0.80;;;0.80;;